Time;durP1;ratioP1;P1;durP2;ratioP2;P2;SDS_P1;SDS_P2;PMS_P1;PMS_P2;Temp;Humidity;BMP_temperature;BMP_pressure;BME280_temperature;BME280_humidity;BME280_pressure;Samples;Min_cycle;Max_cycle;Signal;HPM_P1;HPM_P2
2022/05/29 00:01:55;;;;;;;4.47;1.80;;;18.00;76.70;;;;;;5033468;28;20109;-75
2022/05/29 00:04:21;;;;;;;6.60;2.10;;;18.00;76.90;;;;;;5033172;28;20524;-75
2022/05/29 00:06:52;;;;;;;4.88;1.90;;;17.90;77.20;;;;;;5036116;28;20032;-74
2022/05/29 00:09:25;;;;;;;4.78;2.15;;;17.90;77.30;;;;;;5004560;28;20033;-76
2022/05/29 00:11:51;;;;;;;3.00;1.98;;;17.90;77.60;;;;;;5018132;28;20021;-74
2022/05/29 00:14:17;;;;;;;4.35;2.28;;;17.80;77.80;;;;;;5020834;28;20033;-74
2022/05/29 00:16:43;;;;;;;2.90;2.25;;;17.80;78.10;;;;;;5026861;28;20051;-75
2022/05/29 00:19:09;;;;;;;5.80;2.40;;;17.70;78.20;;;;;;5022917;28;20018;-75
2022/05/29 00:21:36;;;;;;;4.57;1.75;;;17.70;78.50;;;;;;5023939;28;20092;-75
2022/05/29 00:24:03;;;;;;;8.65;2.33;;;17.60;78.80;;;;;;5025139;28;20099;-75
2022/05/29 00:26:28;;;;;;;4.75;1.95;;;17.50;79.10;;;;;;5010370;28;20074;-75
2022/05/29 00:28:54;;;;;;;5.38;2.20;;;17.50;79.70;;;;;;5027999;28;20022;-75
2022/05/29 00:31:20;;;;;;;4.88;2.58;;;17.40;79.70;;;;;;5013970;28;20033;-75
2022/05/29 00:33:46;;;;;;;8.52;2.45;;;17.40;80.10;;;;;;5033236;28;20029;-75
2022/05/29 00:36:15;;;;;;;6.97;2.42;;;17.30;80.40;;;;;;5037947;28;20041;-74
2022/05/29 00:38:44;;;;;;;3.47;2.25;;;17.30;80.70;;;;;;5036688;28;20022;-74
2022/05/29 00:41:31;;;;;;;5.45;2.28;;;17.20;81.10;;;;;;5012200;28;20026;-74
2022/05/29 00:44:13;;;;;;;8.18;2.30;;;17.10;81.50;;;;;;5004001;28;20049;-76
2022/05/29 00:46:42;;;;;;;4.10;1.92;;;17.10;81.70;;;;;;5024215;28;20054;-75
2022/05/29 00:49:09;;;;;;;10.45;2.55;;;17.00;82.10;;;;;;5023623;28;20017;-75
2022/05/29 00:51:41;;;;;;;2.85;2.10;;;17.00;82.60;;;;;;5008949;28;20029;-75
2022/05/29 00:54:08;;;;;;;2.17;1.77;;;16.90;82.90;;;;;;5017342;28;20021;-75
2022/05/29 00:56:36;;;;;;;9.45;2.40;;;16.90;82.90;;;;;;5034985;28;20486;-74
2022/05/29 00:59:03;;;;;;;4.50;2.60;;;16.80;83.20;;;;;;5013130;28;20053;-74
2022/05/29 01:01:30;;;;;;;6.60;2.28;;;16.80;83.30;;;;;;5030175;28;20405;-74
2022/05/29 01:03:56;;;;;;;4.55;2.40;;;16.70;83.30;;;;;;5037309;28;20030;-75
2022/05/29 01:06:22;;;;;;;5.38;2.15;;;16.70;83.50;;;;;;5018856;28;20026;-75
2022/05/29 01:08:48;;;;;;;3.50;2.25;;;16.70;83.50;;;;;;5038750;28;20033;-75
2022/05/29 01:11:23;;;;;;;9.73;2.15;;;16.70;83.70;;;;;;5035105;28;20022;-74
2022/05/29 01:14:00;;;;;;;3.67;2.40;;;16.70;83.70;;;;;;5003403;28;20030;-74
2022/05/29 01:17:02;;;;;;;8.55;2.40;;;16.60;83.90;;;;;;5028709;28;20049;-75
2022/05/29 01:19:47;;;;;;;5.38;2.38;;;16.60;83.90;;;;;;5009654;28;20076;-74
2022/05/29 01:22:35;;;;;;;5.80;2.33;;;16.60;83.90;;;;;;5026261;28;20030;-74
2022/05/29 01:25:25;;;;;;;8.80;2.28;;;16.60;84.30;;;;;;5025948;28;20022;-75
2022/05/29 01:28:03;;;;;;;3.03;2.00;;;16.60;84.30;;;;;;5033131;28;20064;-74
2022/05/29 01:30:34;;;;;;;4.18;2.25;;;16.60;84.40;;;;;;5013121;28;20036;-74
2022/05/29 01:33:10;;;;;;;5.50;3.28;;;16.50;84.50;;;;;;5034721;28;20052;-74
2022/05/29 01:35:42;;;;;;;9.52;2.60;;;16.50;84.90;;;;;;5035169;28;20080;-75
2022/05/29 01:38:24;;;;;;;4.90;2.55;;;16.40;84.90;;;;;;5036353;28;20028;-75
2022/05/29 01:41:35;;;;;;;5.15;2.28;;;16.40;85.20;;;;;;5026641;28;20043;-74
2022/05/29 01:44:04;;;;;;;3.55;2.58;;;16.30;85.40;;;;;;4938358;29;20039;-75
2022/05/29 01:46:37;;;;;;;4.22;2.30;;;16.30;85.70;;;;;;5011434;28;20045;-75
2022/05/29 01:49:14;;;;;;;5.00;2.30;;;16.20;85.90;;;;;;5021215;28;20037;-74
2022/05/29 01:51:53;;;;;;;5.63;2.03;;;16.20;86.00;;;;;;5007695;28;20026;-74
2022/05/29 01:54:28;;;;;;;6.85;2.55;;;16.20;86.10;;;;;;5035732;28;20062;-75
2022/05/29 01:57:01;;;;;;;9.38;2.30;;;16.10;86.40;;;;;;5017956;28;20049;-75
2022/05/29 01:59:53;;;;;;;6.82;2.53;;;16.10;86.60;;;;;;5008878;28;20120;-73
2022/05/29 02:02:25;;;;;;;4.75;2.35;;;16.10;86.70;;;;;;5010246;28;20030;-74
2022/05/29 02:04:56;;;;;;;3.80;2.40;;;16.00;86.90;;;;;;5016377;28;20034;-74
2022/05/29 02:10:31;;;;;;;4.32;2.33;;;15.90;87.40;;;;;;5028377;28;20128;-74
2022/05/29 02:13:06;;;;;;;5.72;2.05;;;15.90;87.40;;;;;;5032746;28;20032;-75
2022/05/29 02:15:56;;;;;;;4.20;2.22;;;15.90;87.60;;;;;;5025887;28;20079;-74
2022/05/29 02:18:39;;;;;;;2.78;2.10;;;15.90;87.90;;;;;;5020381;28;20509;-76
2022/05/29 02:21:11;;;;;;;4.00;2.13;;;15.80;87.90;;;;;;5024884;28;20033;-77
2022/05/29 02:23:46;;;;;;;5.00;3.10;;;15.80;88.10;;;;;;5022434;28;20037;-76
2022/05/29 02:26:17;;;;;;;11.13;2.53;;;15.70;88.20;;;;;;5007360;28;20056;-76
2022/05/29 02:28:48;;;;;;;8.15;2.58;;;15.70;88.20;;;;;;5014032;28;20030;-76
2022/05/29 02:31:24;;;;;;;;;;;15.70;88.30;;;;;;5031827;28;20516;-76
2022/05/29 02:33:58;;;;;;;6.10;2.03;;;15.70;88.40;;;;;;5030683;28;19905;-76
2022/05/29 02:36:34;;;;;;;4.30;2.17;;;15.70;88.60;;;;;;5032953;28;20025;-76
2022/05/29 02:39:24;;;;;;;8.05;2.67;;;15.60;88.30;;;;;;5034919;28;20025;-76
2022/05/29 02:42:21;;;;;;;5.88;2.08;;;15.60;88.90;;;;;;5033386;28;20017;-77
2022/05/29 02:44:59;;;;;;;6.10;2.50;;;15.60;88.90;;;;;;5036209;28;20083;-76
2022/05/29 02:47:37;;;;;;;3.22;2.30;;;15.50;88.70;;;;;;5029555;28;20049;-76
2022/05/29 02:50:27;;;;;;;7.15;2.88;;;15.50;88.80;;;;;;5002624;28;20560;-76
2022/05/29 02:52:56;;;;;;;7.32;2.92;;;15.50;89.10;;;;;;5024738;28;20029;-76
2022/05/29 02:55:24;;;;;;;3.90;2.15;;;15.40;90.20;;;;;;5037059;28;20026;-77
2022/05/29 02:57:56;;;;;;;7.65;2.63;;;15.30;91.10;;;;;;5016424;28;20027;-77
2022/05/29 03:00:23;;;;;;;4.78;2.40;;;15.10;91.30;;;;;;5001443;28;20032;-76
2022/05/29 03:03:05;;;;;;;3.85;2.72;;;15.00;91.20;;;;;;5032379;28;20018;-76
2022/05/29 03:05:45;;;;;;;4.15;2.55;;;14.90;92.10;;;;;;5033789;28;20034;-76
2022/05/29 03:08:16;;;;;;;4.20;2.47;;;14.80;92.80;;;;;;5033923;28;20517;-76
2022/05/29 03:10:51;;;;;;;4.90;2.20;;;14.60;93.50;;;;;;5036627;28;20030;-76
2022/05/29 03:13:52;;;;;;;5.43;3.03;;;14.50;93.90;;;;;;5017733;28;20022;-76
2022/05/29 03:16:35;;;;;;;3.78;2.40;;;14.40;94.40;;;;;;5009054;28;20080;-76
2022/05/29 03:19:34;;;;;;;5.78;2.42;;;14.30;94.90;;;;;;5020693;28;20030;-76
2022/05/29 03:22:15;;;;;;;3.25;2.53;;;14.20;95.00;;;;;;5021073;28;20030;-76
2022/05/29 03:25:00;;;;;;;5.35;2.92;;;14.10;95.40;;;;;;5021472;28;20105;-75
2022/05/29 03:27:34;;;;;;;6.15;2.88;;;14.10;95.50;;;;;;5033384;28;20496;-76
2022/05/29 03:30:09;;;;;;;7.82;2.47;;;14.10;95.50;;;;;;5025720;28;20367;-76
2022/05/29 03:32:36;;;;;;;9.90;3.17;;;14.10;95.80;;;;;;5030675;28;20160;-76
2022/05/29 03:35:36;;;;;;;4.28;2.33;;;14.00;95.80;;;;;;5028153;28;20025;-76
2022/05/29 03:38:04;;;;;;;7.30;3.20;;;13.90;96.00;;;;;;4974043;28;20045;-76
2022/05/29 03:40:32;;;;;;;3.13;2.83;;;13.90;96.60;;;;;;5015044;28;20036;-76
2022/05/29 03:42:58;;;;;;;6.07;2.65;;;13.80;96.50;;;;;;5035774;28;20588;-77
2022/05/29 03:45:25;;;;;;;3.10;2.65;;;13.70;96.80;;;;;;5013241;28;20468;-75
2022/05/29 03:47:51;;;;;;;6.25;2.80;;;13.70;96.90;;;;;;5017723;28;20418;-74
2022/05/29 03:50:20;;;;;;;4.03;2.83;;;13.70;97.00;;;;;;5002778;28;20021;-75
2022/05/29 03:52:47;;;;;;;6.65;2.45;;;13.70;96.80;;;;;;5019868;28;20076;-75
2022/05/29 03:55:14;;;;;;;7.80;2.75;;;13.70;97.30;;;;;;5023830;28;20064;-74
2022/05/29 03:57:41;;;;;;;6.80;2.88;;;13.60;97.20;;;;;;5004040;28;20367;-74
2022/05/29 04:00:11;;;;;;;8.10;3.20;;;13.60;97.40;;;;;;5010449;28;20536;-74
2022/05/29 04:02:40;;;;;;;7.60;2.95;;;13.50;97.70;;;;;;5030999;28;20021;-74
2022/05/29 04:05:09;;;;;;;8.35;3.35;;;13.50;98.20;;;;;;5031692;28;20044;-74
2022/05/29 04:13:04;;;;;;;9.82;3.00;;;13.40;97.70;;;;;;5038186;28;20028;-74
2022/05/29 04:15:30;;;;;;;4.05;2.50;;;13.30;97.80;;;;;;5021272;28;20448;-74
2022/05/29 04:17:56;;;;;;;6.05;2.80;;;13.30;98.60;;;;;;5016056;28;20053;-74
2022/05/29 04:20:22;;;;;;;4.75;2.85;;;13.30;97.70;;;;;;5003731;28;20022;-74
2022/05/29 04:22:48;;;;;;;5.30;3.20;;;13.30;97.90;;;;;;5005907;28;20548;-74
2022/05/29 04:25:14;;;;;;;5.63;2.60;;;13.30;97.90;;;;;;5022903;28;20060;-74
2022/05/29 04:27:40;;;;;;;5.80;3.00;;;13.30;98.30;;;;;;5010175;28;20389;-74
2022/05/29 04:30:06;;;;;;;3.13;2.50;;;13.30;97.80;;;;;;5024829;28;20021;-74
2022/05/29 04:35:17;;;;;;;5.45;2.65;;;13.50;97.40;;;;;;5028218;28;20048;-74
2022/05/29 04:37:42;;;;;;;7.68;2.92;;;13.60;97.20;;;;;;5032604;28;20028;-73
2022/05/29 04:40:09;;;;;;;6.25;2.85;;;13.60;97.00;;;;;;5030173;28;20014;-74
2022/05/29 04:42:35;;;;;;;9.50;3.25;;;13.70;97.10;;;;;;5035837;28;20040;-74
2022/05/29 04:45:01;;;;;;;6.35;3.20;;;13.70;97.00;;;;;;5015617;28;20449;-74
2022/05/29 04:47:28;;;;;;;6.38;2.50;;;13.70;96.90;;;;;;5037416;28;20081;-74
2022/05/29 04:49:54;;;;;;;4.22;2.78;;;13.80;97.20;;;;;;5036870;28;20026;-74
2022/05/29 04:52:20;;;;;;;6.82;2.90;;;13.80;97.30;;;;;;5039444;28;20044;-74
2022/05/29 04:54:46;;;;;;;6.00;3.10;;;13.80;97.90;;;;;;5025153;28;20022;-73
2022/05/29 04:57:12;;;;;;;5.82;3.00;;;13.80;97.90;;;;;;5021627;28;20033;-73
2022/05/29 04:59:37;;;;;;;4.60;2.72;;;13.70;98.40;;;;;;5024057;28;20032;-73
2022/05/29 05:02:05;;;;;;;6.38;2.90;;;13.80;98.50;;;;;;5034222;28;20033;-74
2022/05/29 05:04:31;;;;;;;7.05;2.75;;;13.70;98.80;;;;;;5012515;28;20529;-74
2022/05/29 05:06:58;;;;;;;7.20;3.55;;;13.80;99.10;;;;;;5017221;28;20039;-73
2022/05/29 05:09:26;;;;;;;4.57;2.55;;;13.80;99.40;;;;;;5014373;28;20025;-74
2022/05/29 05:11:52;;;;;;;7.13;2.97;;;13.80;99.40;;;;;;5036810;28;20022;-74
2022/05/29 05:14:20;;;;;;;4.88;2.92;;;13.80;99.20;;;;;;5036146;28;20084;-74
2022/05/29 05:16:46;;;;;;;6.07;3.10;;;13.90;99.00;;;;;;5038471;28;20021;-73
2022/05/29 05:19:13;;;;;;;6.90;3.60;;;13.90;98.80;;;;;;5036587;28;20028;-74
2022/05/29 05:21:39;;;;;;;5.47;3.08;;;14.00;98.60;;;;;;5011653;28;20120;-74
2022/05/29 05:24:05;;;;;;;4.93;2.70;;;14.10;98.30;;;;;;5018120;28;20045;-74
2022/05/29 05:26:31;;;;;;;9.25;3.00;;;14.20;98.00;;;;;;5037083;28;20025;-74
2022/05/29 05:28:58;;;;;;;11.02;3.15;;;14.20;98.40;;;;;;5018996;28;20045;-75
2022/05/29 05:31:25;;;;;;;4.25;2.70;;;14.20;98.40;;;;;;5015514;28;20026;-74
2022/05/29 05:33:51;;;;;;;4.75;2.58;;;14.30;98.70;;;;;;5021123;28;20025;-75
2022/05/29 05:36:17;;;;;;;4.72;2.58;;;14.30;98.80;;;;;;5035271;28;20018;-75
2022/05/29 05:38:44;;;;;;;3.63;2.50;;;14.30;98.70;;;;;;5027764;28;20081;-75
2022/05/29 05:41:11;;;;;;;6.22;2.47;;;14.40;99.10;;;;;;5032910;28;20022;-75
2022/05/29 05:43:39;;;;;;;3.60;2.53;;;14.40;98.60;;;;;;5018848;28;20025;-75
2022/05/29 05:46:09;;;;;;;6.60;2.75;;;14.50;98.50;;;;;;5037571;28;20028;-75
2022/05/29 05:48:36;;;;;;;4.65;2.80;;;14.50;98.10;;;;;;5014124;28;20072;-75
2022/05/29 05:51:02;;;;;;;7.20;2.65;;;14.50;98.20;;;;;;5011045;28;20032;-75
2022/05/29 05:53:28;;;;;;;7.28;2.63;;;14.60;98.20;;;;;;5031577;28;20025;-76
2022/05/29 05:55:54;;;;;;;4.07;2.60;;;14.70;97.90;;;;;;5036713;28;20021;-74
2022/05/29 05:58:21;;;;;;;3.78;2.60;;;14.70;97.60;;;;;;5034139;28;20026;-75
2022/05/29 06:00:49;;;;;;;6.22;2.67;;;14.80;96.80;;;;;;5036511;28;20021;-75
2022/05/29 06:03:15;;;;;;;6.75;2.40;;;14.90;96.90;;;;;;5036430;28;20406;-74
2022/05/29 06:05:41;;;;;;;3.42;2.15;;;14.90;97.00;;;;;;5038454;28;20521;-75
2022/05/29 06:08:07;;;;;;;8.70;2.38;;;15.00;96.70;;;;;;5021576;28;20029;-75
2022/05/29 06:10:33;;;;;;;5.40;2.67;;;15.00;96.40;;;;;;5020271;28;20022;-75
2022/05/29 06:13:04;;;;;;;2.58;2.20;;;15.10;97.00;;;;;;5034652;28;20029;-76
2022/05/29 06:15:30;;;;;;;;;;;15.10;96.60;;;;;;5011389;28;20013;-76
2022/05/29 06:17:56;;;;;;;7.22;2.60;;;15.20;96.00;;;;;;5011892;28;20484;-76
2022/05/29 06:20:24;;;;;;;7.00;2.65;;;15.30;95.90;;;;;;5024569;28;20037;-76
2022/05/29 06:22:51;;;;;;;5.63;3.13;;;15.30;95.30;;;;;;5030002;28;20017;-76
2022/05/29 06:25:17;;;;;;;8.93;2.70;;;15.30;94.50;;;;;;5026485;28;20037;-75
2022/05/29 06:27:44;;;;;;;3.33;2.22;;;15.40;94.60;;;;;;5026775;28;20528;-76
2022/05/29 06:30:14;;;;;;;5.05;2.60;;;15.50;94.40;;;;;;5014122;28;20026;-76
2022/05/29 06:32:40;;;;;;;6.90;2.63;;;15.50;93.80;;;;;;5035710;28;20024;-76
2022/05/29 06:35:10;;;;;;;5.80;2.78;;;15.50;93.10;;;;;;5019536;28;20025;-75
2022/05/29 06:37:41;;;;;;;4.97;2.40;;;15.60;94.00;;;;;;5018799;28;20018;-76
2022/05/29 06:40:09;;;;;;;4.72;2.75;;;15.60;94.00;;;;;;5021403;28;20470;-76
2022/05/29 06:42:35;;;;;;;5.05;2.30;;;15.70;93.50;;;;;;5021836;28;20029;-76
2022/05/29 06:45:03;;;;;;;5.43;2.42;;;15.70;92.40;;;;;;5023255;28;20042;-76
2022/05/29 06:47:29;;;;;;;4.18;2.10;;;15.70;92.70;;;;;;5011898;28;20454;-76
2022/05/29 06:49:55;;;;;;;7.70;2.75;;;15.70;92.60;;;;;;5004562;28;20068;-75
2022/05/29 06:52:20;;;;;;;8.40;2.45;;;15.70;92.40;;;;;;5007390;28;20026;-76
2022/05/29 06:54:46;;;;;;;9.43;2.60;;;15.80;92.80;;;;;;5006484;28;20538;-76
2022/05/29 06:57:36;;;;;;;8.90;2.90;;;15.90;92.40;;;;;;5011045;28;20022;-77
2022/05/29 07:08:05;;;;;;;7.82;2.47;;;16.20;91.60;;;;;;5015013;28;20496;-75
2022/05/29 07:10:33;;;;;;;11.95;3.28;;;16.30;92.50;;;;;;5016059;28;20034;-75
2022/05/29 07:13:01;;;;;;;5.47;2.28;;;16.30;92.30;;;;;;4999070;28;20021;-77
2022/05/29 07:15:27;;;;;;;5.28;2.78;;;16.40;92.30;;;;;;5004267;28;20080;-77
2022/05/29 07:17:53;;;;;;;5.45;2.72;;;16.30;91.20;;;;;;5002874;28;20026;-77
2022/05/29 07:20:19;;;;;;;5.40;2.17;;;16.40;92.20;;;;;;5002052;28;20033;-76
2022/05/29 07:22:45;;;;;;;7.88;2.65;;;16.50;91.80;;;;;;5006345;28;20094;-77
2022/05/29 07:25:12;;;;;;;8.48;2.38;;;16.40;91.40;;;;;;5003463;28;20030;-76
2022/05/29 07:27:38;;;;;;;3.67;2.42;;;16.50;91.30;;;;;;5015002;28;20045;-76
2022/05/29 07:30:06;;;;;;;11.93;2.53;;;16.60;91.00;;;;;;5015738;28;20048;-77
2022/05/29 07:32:32;;;;;;;6.80;2.45;;;16.60;91.20;;;;;;5009963;28;20453;-77
2022/05/29 07:34:59;;;;;;;5.50;2.20;;;16.80;91.20;;;;;;5002364;28;20018;-76
2022/05/29 07:37:26;;;;;;;5.60;2.50;;;16.90;90.80;;;;;;5013540;28;20095;-77
2022/05/29 07:39:53;;;;;;;5.18;2.15;;;17.00;90.70;;;;;;5012278;28;20030;-77
2022/05/29 07:45:07;;;;;;;8.65;2.60;;;17.40;88.30;;;;;;5018656;28;20029;-76
2022/05/29 07:47:40;;;;;;;6.22;2.25;;;17.50;87.70;;;;;;5014130;28;20046;-77
2022/05/29 07:50:09;;;;;;;6.15;2.20;;;17.50;87.70;;;;;;5007423;28;20044;-76
2022/05/29 07:52:35;;;;;;;9.35;2.75;;;17.50;88.10;;;;;;5006279;28;20112;-76
2022/05/29 07:55:01;;;;;;;6.40;2.85;;;17.50;85.90;;;;;;5028272;28;20029;-77
2022/05/29 07:57:27;;;;;;;10.02;2.97;;;17.50;84.90;;;;;;5025974;28;20037;-77
2022/05/29 07:59:53;;;;;;;5.57;2.65;;;17.50;86.00;;;;;;5012563;28;20060;-77
2022/05/29 08:02:19;;;;;;;3.75;2.08;;;17.60;85.20;;;;;;5018570;28;20026;-76
2022/05/29 08:04:45;;;;;;;4.18;2.10;;;17.70;84.00;;;;;;5033139;28;20049;-77
2022/05/29 08:07:16;;;;;;;8.00;2.40;;;17.80;84.20;;;;;;5016551;28;20040;-77
2022/05/29 08:09:42;;;;;;;6.63;2.58;;;17.80;85.10;;;;;;5018095;28;20493;-77
2022/05/29 08:12:08;;;;;;;4.88;2.72;;;18.00;84.60;;;;;;5037603;28;20029;-77
2022/05/29 08:14:34;;;;;;;5.38;2.50;;;18.00;83.20;;;;;;5037999;28;20037;-77
2022/05/29 08:17:00;;;;;;;7.38;2.30;;;18.20;81.40;;;;;;5039911;28;20036;-76
2022/05/29 08:19:26;;;;;;;6.85;2.35;;;18.20;80.70;;;;;;5004808;28;20022;-77
2022/05/29 08:21:52;;;;;;;4.97;2.33;;;18.30;82.50;;;;;;5004256;28;20030;-77
2022/05/29 08:32:35;;;;;;;3.72;2.30;;;18.60;78.50;;;;;;5030439;28;20036;-76
2022/05/29 08:35:01;;;;;;;3.67;2.45;;;18.70;77.70;;;;;;5014238;28;20025;-75
2022/05/29 08:37:28;;;;;;;3.80;2.15;;;18.80;77.20;;;;;;5016776;28;20021;-76
2022/05/29 08:39:54;;;;;;;2.72;1.67;;;18.90;78.20;;;;;;5013095;28;20085;-76
2022/05/29 08:42:20;;;;;;;5.75;2.60;;;19.00;76.50;;;;;;5036090;28;20472;-76
2022/05/29 08:44:50;;;;;;;5.50;1.88;;;19.20;77.70;;;;;;5016895;28;20490;-76
2022/05/29 08:47:25;;;;;;;9.77;2.80;;;19.10;74.90;;;;;;5006234;28;20045;-77
2022/05/29 08:49:51;;;;;;;5.10;1.92;;;19.20;75.70;;;;;;5015765;28;20030;-75
2022/05/29 08:52:48;;;;;;;6.60;2.42;;;19.30;76.50;;;;;;5019814;28;20564;-76
2022/05/29 08:55:38;;;;;;;7.55;2.08;;;19.30;76.80;;;;;;5015958;28;20014;-76
2022/05/29 08:58:19;;;;;;;6.15;1.95;;;19.50;75.60;;;;;;5011395;28;20027;-74
2022/05/29 09:01:04;;;;;;;6.88;2.60;;;19.60;75.70;;;;;;5003578;28;20487;-74
2022/05/29 09:03:31;;;;;;;5.78;2.15;;;19.70;76.40;;;;;;5004755;28;21715;-74
2022/05/29 09:06:14;;;;;;;4.95;2.05;;;19.90;74.40;;;;;;5004813;28;20052;-74
2022/05/29 09:08:56;;;;;;;5.25;2.10;;;20.00;74.30;;;;;;5014847;28;20445;-74
2022/05/29 09:11:54;;;;;;;4.30;1.85;;;20.20;74.80;;;;;;5012238;28;20022;-74
2022/05/29 09:14:39;;;;;;;5.97;2.42;;;20.30;73.00;;;;;;5010295;28;20029;-74
2022/05/29 09:17:18;;;;;;;5.25;2.30;;;20.10;73.10;;;;;;5011847;28;20088;-74
2022/05/29 09:20:02;;;;;;;6.50;1.98;;;20.30;74.60;;;;;;5007371;28;20025;-74
2022/05/29 09:22:34;;;;;;;9.00;2.10;;;20.40;72.20;;;;;;5015068;28;20025;-74
2022/05/29 09:25:08;;;;;;;5.15;1.90;;;20.20;72.30;;;;;;5017266;28;20030;-74
2022/05/29 09:27:36;;;;;;;6.28;1.85;;;20.30;71.90;;;;;;5002712;28;20026;-74
2022/05/29 09:30:06;;;;;;;5.78;2.80;;;20.20;71.20;;;;;;5001461;28;20041;-74
2022/05/29 09:32:34;;;;;;;6.95;1.83;;;20.30;72.10;;;;;;5004487;28;20038;-74
2022/05/29 09:35:09;;;;;;;6.55;2.17;;;20.40;71.30;;;;;;5017706;28;20502;-74
2022/05/29 09:38:23;;;;;;;8.20;2.00;;;20.40;70.30;;;;;;5015625;28;20030;-74
2022/05/29 09:41:18;;;;;;;7.13;1.92;;;20.30;68.80;;;;;;5001909;28;20069;-74
2022/05/29 09:44:32;;;;;;;5.88;2.25;;;20.40;70.80;;;;;;5011058;28;20137;-75
2022/05/29 09:49:40;;;;;;;6.35;2.17;;;20.50;68.20;;;;;;4999264;28;20136;-75
2022/05/29 09:50:09;;;;;;;4.15;2.20;;;20.50;69.80;;;;;;5013619;28;20065;-74
2022/05/29 09:52:41;;;;;;;3.45;1.73;;;20.60;69.50;;;;;;5015406;28;20108;-74
2022/05/29 09:55:24;;;;;;;3.97;2.70;;;20.70;66.90;;;;;;5013438;28;20014;-76
2022/05/29 09:58:01;;;;;;;5.30;2.20;;;20.70;65.80;;;;;;5015158;28;20026;-74
2022/05/29 10:00:27;;;;;;;5.72;1.70;;;20.90;65.40;;;;;;5018475;28;20041;-73
2022/05/29 10:02:54;;;;;;;10.45;1.88;;;20.90;66.90;;;;;;5005080;28;20030;-74
2022/05/29 10:05:27;;;;;;;7.60;1.75;;;21.00;67.10;;;;;;5000128;28;20050;-74
2022/05/29 10:07:59;;;;;;;8.07;2.42;;;21.10;66.50;;;;;;5013151;28;20112;-75
2022/05/29 10:10:24;;;;;;;7.78;2.08;;;21.00;63.90;;;;;;5003080;28;20023;-74
2022/05/29 10:12:52;;;;;;;3.83;2.05;;;21.10;68.60;;;;;;5006217;28;20026;-75
2022/05/29 10:15:27;;;;;;;7.88;2.47;;;21.30;67.30;;;;;;5010595;28;20096;-74
2022/05/29 10:17:55;;;;;;;5.90;2.20;;;21.30;65.60;;;;;;5012014;28;20105;-74
2022/05/29 10:20:36;;;;;;;5.30;1.90;;;21.50;65.70;;;;;;5007118;28;20018;-74
2022/05/29 10:23:06;;;;;;;4.13;1.90;;;21.50;64.80;;;;;;5005918;28;20018;-74
2022/05/29 10:25:37;;;;;;;8.35;1.70;;;21.50;63.40;;;;;;5009991;28;20022;-74
2022/05/29 10:28:15;;;;;;;4.68;2.00;;;21.60;64.00;;;;;;5015698;28;20025;-74
2022/05/29 10:30:49;;;;;;;6.68;2.03;;;21.60;64.40;;;;;;5015012;28;20071;-73
2022/05/29 10:33:24;;;;;;;3.70;1.60;;;21.60;64.20;;;;;;5016556;28;20026;-74
2022/05/29 10:35:55;;;;;;;8.77;2.35;;;21.60;65.30;;;;;;4998410;28;20029;-74
2022/05/29 10:38:22;;;;;;;6.75;2.22;;;21.60;65.20;;;;;;5000693;28;20015;-74
2022/05/29 10:40:51;;;;;;;6.32;1.88;;;21.40;62.80;;;;;;5004560;28;20040;-75
2022/05/29 10:43:36;;;;;;;5.13;2.08;;;21.50;64.70;;;;;;5007874;28;20096;-75
2022/05/29 10:46:23;;;;;;;11.27;1.95;;;21.80;64.20;;;;;;5004032;28;20034;-75
2022/05/29 10:49:29;;;;;;;3.50;1.85;;;22.00;62.10;;;;;;4985571;28;20038;-74
2022/05/29 10:52:01;;;;;;;4.93;2.05;;;22.10;62.40;;;;;;4990782;28;20030;-74
2022/05/29 10:55:00;;;;;;;7.90;2.03;;;22.30;63.30;;;;;;4989538;28;20039;-74
2022/05/29 10:57:41;;;;;;;5.63;1.92;;;22.60;60.80;;;;;;4994595;28;20364;-74
2022/05/29 11:00:13;;;;;;;6.43;2.20;;;22.80;61.90;;;;;;4985198;28;20390;-73
2022/05/29 11:03:19;;;;;;;6.43;1.73;;;22.60;60.30;;;;;;4994948;28;20084;-73
2022/05/29 11:06:15;;;;;;;5.38;1.70;;;22.40;60.80;;;;;;4984141;28;20105;-75
2022/05/29 11:08:51;;;;;;;3.47;1.88;;;22.30;59.00;;;;;;4980047;28;20026;-73
2022/05/29 11:11:32;;;;;;;4.47;1.50;;;22.20;59.10;;;;;;4982048;28;20108;-74
2022/05/29 11:14:07;;;;;;;6.25;1.50;;;22.10;57.80;;;;;;4982724;28;20019;-74
2022/05/29 11:16:51;;;;;;;4.90;2.30;;;22.10;58.70;;;;;;4980523;28;20065;-74
2022/05/29 11:19:47;;;;;;;3.92;1.42;;;22.10;60.70;;;;;;4990205;28;20022;-74
2022/05/29 11:22:25;;;;;;;3.00;1.67;;;22.30;63.10;;;;;;4986844;28;20169;-74
2022/05/29 11:25:08;;;;;;;4.38;1.58;;;22.40;58.10;;;;;;4989522;28;20022;-75
2022/05/29 11:27:51;;;;;;;6.75;1.80;;;22.60;59.80;;;;;;4992743;28;20088;-74
2022/05/29 11:30:42;;;;;;;5.75;1.80;;;22.70;60.20;;;;;;4990524;28;20034;-75
2022/05/29 11:33:26;;;;;;;;;;;22.70;60.20;;;;;;4993467;28;20022;-74
2022/05/29 11:36:20;;;;;;;6.57;2.40;;;22.90;62.30;;;;;;4995874;28;19909;-74
2022/05/29 11:39:19;;;;;;;5.60;2.25;;;23.30;59.50;;;;;;4992036;28;20046;-75
2022/05/29 11:42:24;;;;;;;3.45;1.50;;;23.30;58.90;;;;;;4992506;28;20019;-75
2022/05/29 11:45:05;;;;;;;7.70;1.80;;;23.30;58.70;;;;;;4935281;29;20123;-75
2022/05/29 11:53:39;;;;;;;6.15;1.95;;;23.60;58.10;;;;;;5028872;28;20516;-75
2022/05/29 11:56:11;;;;;;;5.32;1.60;;;23.50;59.00;;;;;;5028733;28;20490;-75
2022/05/29 11:58:50;;;;;;;10.57;1.75;;;23.60;58.60;;;;;;5005851;28;20397;-76
2022/05/29 12:01:25;;;;;;;7.03;1.60;;;23.60;57.90;;;;;;5013446;28;20026;-76
2022/05/29 12:04:05;;;;;;;4.93;1.77;;;23.60;57.70;;;;;;5017219;28;20033;-75
2022/05/29 12:06:31;;;;;;;;;;;23.60;57.50;;;;;;5035436;28;20017;-75
2022/05/29 12:08:57;;;;;;;4.47;1.92;;;23.90;60.10;;;;;;5025913;28;19912;-75
2022/05/29 12:11:25;;;;;;;5.93;1.63;;;24.10;58.00;;;;;;5019861;28;20032;-75
2022/05/29 12:13:57;;;;;;;5.30;1.60;;;23.90;58.20;;;;;;5001764;28;20486;-75
2022/05/29 12:16:30;;;;;;;4.25;1.80;;;23.90;58.00;;;;;;5031387;28;20017;-75
2022/05/29 12:18:59;;;;;;;4.85;1.33;;;24.10;58.80;;;;;;5003942;28;20502;-75
2022/05/29 12:21:36;;;;;;;4.45;1.75;;;24.20;58.10;;;;;;5009899;28;20140;-74
2022/05/29 12:24:07;;;;;;;5.05;1.75;;;24.40;57.70;;;;;;5025389;28;20026;-75
2022/05/29 12:26:46;;;;;;;;;;;24.40;57.10;;;;;;5029224;28;20033;-75
2022/05/29 12:29:22;;;;;;;4.13;1.83;;;24.10;56.60;;;;;;5031509;28;19905;-75
2022/05/29 12:31:50;;;;;;;6.97;1.65;;;24.20;56.30;;;;;;5032942;28;20025;-75
2022/05/29 12:34:24;;;;;;;5.50;1.50;;;24.30;57.70;;;;;;5036485;28;20018;-75
2022/05/29 12:36:53;;;;;;;3.05;1.73;;;24.60;54.40;;;;;;5035397;28;20540;-75
2022/05/29 12:39:49;;;;;;;4.03;1.40;;;24.80;56.10;;;;;;5039750;28;20408;-75
2022/05/29 12:42:55;;;;;;;3.85;1.63;;;24.90;57.10;;;;;;5034954;28;20033;-75
2022/05/29 12:45:33;;;;;;;4.50;1.30;;;25.00;56.00;;;;;;5026239;28;20512;-74
2022/05/29 12:48:17;;;;;;;5.35;1.73;;;25.00;53.20;;;;;;5006261;28;20053;-74
2022/05/29 12:50:55;;;;;;;3.78;1.58;;;24.70;53.60;;;;;;5025291;28;20034;-74
2022/05/29 12:53:49;;;;;;;5.55;1.42;;;24.70;55.80;;;;;;5029635;28;20030;-74
2022/05/29 12:56:46;;;;;;;2.63;1.20;;;25.00;54.90;;;;;;5028565;28;20022;-75
2022/05/29 12:59:34;;;;;;;3.72;1.60;;;25.00;54.10;;;;;;4985956;28;20041;-75
2022/05/29 13:02:08;;;;;;;3.30;1.77;;;24.90;55.40;;;;;;5031274;28;20025;-74
2022/05/29 13:05:12;;;;;;;4.22;1.63;;;25.00;54.90;;;;;;5038270;28;20037;-74
2022/05/29 13:07:58;;;;;;;5.43;1.30;;;25.20;55.80;;;;;;4940017;29;20028;-75
2022/05/29 13:10:33;;;;;;;6.25;1.25;;;25.50;52.90;;;;;;5025639;28;20436;-75
2022/05/29 13:13:13;;;;;;;3.50;1.40;;;25.40;51.30;;;;;;5037855;28;20021;-75
2022/05/29 13:15:41;;;;;;;6.95;1.83;;;25.30;51.60;;;;;;5020174;28;20454;-75
2022/05/29 13:18:19;;;;;;;4.88;2.03;;;25.10;52.90;;;;;;5039407;28;20419;-75
2022/05/29 13:21:07;;;;;;;5.82;1.50;;;24.90;52.40;;;;;;5026828;28;20474;-75
2022/05/29 13:23:36;;;;;;;4.60;1.83;;;25.10;51.90;;;;;;5021990;28;20048;-75
2022/05/29 13:26:02;;;;;;;2.42;1.30;;;24.90;51.10;;;;;;5025942;28;20493;-75
2022/05/29 13:28:31;;;;;;;5.90;1.73;;;25.20;54.30;;;;;;5024154;28;20029;-75
2022/05/29 13:31:14;;;;;;;3.47;1.05;;;25.60;53.00;;;;;;5029813;28;20022;-76
2022/05/29 13:33:44;;;;;;;4.88;1.60;;;25.90;48.80;;;;;;5014746;28;20018;-75
2022/05/29 13:36:47;;;;;;;2.50;1.35;;;25.80;49.60;;;;;;5035697;28;20029;-75
2022/05/29 13:39:30;;;;;;;4.97;1.10;;;26.00;48.30;;;;;;5008202;28;20038;-75
2022/05/29 13:42:03;;;;;;;3.95;1.40;;;26.20;47.60;;;;;;5035030;28;20029;-75
2022/05/29 13:44:41;;;;;;;5.63;1.50;;;26.40;47.60;;;;;;5026041;28;20053;-76
2022/05/29 13:47:18;;;;;;;2.10;1.13;;;26.00;45.10;;;;;;5038147;28;20081;-76
2022/05/29 13:49:50;;;;;;;4.55;1.35;;;26.10;46.80;;;;;;5014922;28;20028;-76
2022/05/29 13:52:22;;;;;;;6.10;1.23;;;26.40;45.10;;;;;;5034498;28;20074;-75
2022/05/29 13:55:12;;;;;;;2.35;0.93;;;26.40;47.30;;;;;;5031478;28;20028;-76
2022/05/29 14:06:19;;;;;;;2.15;1.33;;;26.80;39.70;;;;;;5025234;28;20064;-77
2022/05/29 14:09:14;;;;;;;2.80;0.80;;;26.40;40.50;;;;;;5030324;28;20026;-76